Time;durP1;ratioP1;P1;durP2;ratioP2;P2;SDS_P1;SDS_P2;PMS_P1;PMS_P2;Temp;Humidity;BMP_temperature;BMP_pressure;BME280_temperature;BME280_humidity;BME280_pressure;Samples;Min_cycle;Max_cycle;Signal;HPM_P1;HPM_P2
2024/04/20 00:00:11;;;;;;;7.93;4.85;;;4.20;93.80;;;;;;5328617;26;20025;-80
2024/04/20 00:02:38;;;;;;;4.25;1.80;;;4.20;93.80;;;;;;5343426;26;20000;-80
2024/04/20 00:05:04;;;;;;;1.05;0.70;;;4.20;93.80;;;;;;5347249;26;19997;-80
2024/04/20 00:07:30;;;;;;;1.52;0.90;;;4.20;93.50;;;;;;5331830;26;20002;-79
2024/04/20 00:09:59;;;;;;;0.73;0.73;;;4.20;93.50;;;;;;5324271;26;20036;-80
2024/04/20 00:12:24;;;;;;;1.13;0.85;;;4.10;93.40;;;;;;5337222;26;20052;-79
2024/04/20 00:14:51;;;;;;;0.90;0.90;;;4.20;93.30;;;;;;5345951;26;20340;-79
2024/04/20 00:17:17;;;;;;;0.68;0.68;;;4.10;93.30;;;;;;5347120;26;20000;-79
2024/04/20 00:19:44;;;;;;;2.53;1.58;;;4.10;93.20;;;;;;5323142;26;20013;-79
2024/04/20 00:22:10;;;;;;;0.75;0.68;;;4.10;93.30;;;;;;5348454;26;20001;-81
2024/04/20 00:24:36;;;;;;;1.30;1.20;;;4.10;93.40;;;;;;5347216;26;20015;-78
2024/04/20 00:27:03;;;;;;;6.65;1.38;;;4.10;93.30;;;;;;5347016;26;20231;-78
2024/04/20 00:29:28;;;;;;;1.65;0.93;;;4.10;93.40;;;;;;5346924;26;20044;-79
2024/04/20 00:31:54;;;;;;;0.82;0.70;;;4.00;93.40;;;;;;5345920;26;20350;-79
2024/04/20 00:34:20;;;;;;;1.95;1.05;;;4.00;93.40;;;;;;5339907;26;20001;-79
2024/04/20 00:36:49;;;;;;;1.20;1.10;;;3.90;93.50;;;;;;5320356;26;20015;-79
2024/04/20 00:39:15;;;;;;;0.93;0.75;;;3.90;93.60;;;;;;5346967;26;20005;-79
2024/04/20 00:41:45;;;;;;;1.23;1.00;;;3.80;93.80;;;;;;5341361;26;20141;-79
2024/04/20 00:44:11;;;;;;;1.33;1.05;;;3.80;93.90;;;;;;5328105;26;20015;-79
2024/04/20 00:46:37;;;;;;;2.92;1.33;;;3.80;94.00;;;;;;5340551;26;20001;-79
2024/04/20 00:49:03;;;;;;;1.67;1.20;;;3.80;94.10;;;;;;5340980;26;20442;-79
2024/04/20 00:51:30;;;;;;;0.90;0.85;;;3.80;94.20;;;;;;5346592;26;20005;-79
2024/04/20 00:53:58;;;;;;;2.65;1.10;;;3.80;94.20;;;;;;5346300;26;20515;-79
2024/04/20 00:56:24;;;;;;;1.70;1.20;;;3.80;94.20;;;;;;5333784;26;20074;-79
2024/04/20 00:58:51;;;;;;;1.58;1.20;;;3.80;94.30;;;;;;5346130;26;20005;-79
2024/04/20 01:01:17;;;;;;;3.95;1.55;;;3.80;94.40;;;;;;5346185;26;20005;-79
2024/04/20 01:03:43;;;;;;;1.98;1.35;;;3.90;94.40;;;;;;5346277;26;20013;-79
2024/04/20 01:06:09;;;;;;;1.10;1.00;;;4.00;94.40;;;;;;5344678;26;20008;-79
2024/04/20 01:08:35;;;;;;;1.30;1.20;;;4.10;94.40;;;;;;5345682;26;20001;-78
2024/04/20 01:11:01;;;;;;;1.45;1.15;;;4.20;94.20;;;;;;5321396;26;20012;-78
2024/04/20 01:13:27;;;;;;;1.38;1.17;;;4.20;94.10;;;;;;5345770;26;20001;-79
2024/04/20 01:15:53;;;;;;;1.40;1.08;;;4.30;94.10;;;;;;5343294;26;20000;-79
2024/04/20 01:18:19;;;;;;;3.42;1.25;;;4.30;94.00;;;;;;5346188;26;20001;-79
2024/04/20 01:20:45;;;;;;;1.92;1.23;;;4.40;94.00;;;;;;5345683;26;20019;-78
2024/04/20 01:23:11;;;;;;;1.50;1.20;;;4.40;93.90;;;;;;5344408;26;20040;-78
2024/04/20 01:25:49;;;;;;;4.40;1.58;;;4.40;93.80;;;;;;5345828;26;20001;-78
2024/04/20 01:28:15;;;;;;;1.55;1.20;;;4.30;93.80;;;;;;5344286;26;20005;-78
2024/04/20 01:30:41;;;;;;;1.33;1.17;;;4.30;93.80;;;;;;5343980;26;20063;-78
2024/04/20 01:33:07;;;;;;;3.28;1.55;;;4.30;93.90;;;;;;5345798;26;20004;-78
2024/04/20 01:35:33;;;;;;;1.48;1.27;;;4.30;93.90;;;;;;5345882;26;20017;-78
2024/04/20 01:37:59;;;;;;;1.67;1.20;;;4.30;93.90;;;;;;5345799;26;20349;-78
2024/04/20 01:40:25;;;;;;;2.47;1.70;;;4.20;93.80;;;;;;5334882;26;20051;-78
2024/04/20 01:42:51;;;;;;;1.90;1.10;;;4.20;93.90;;;;;;5330222;26;20006;-78
2024/04/20 01:45:18;;;;;;;1.95;1.20;;;4.20;93.90;;;;;;5345747;26;20013;-78
2024/04/20 01:47:44;;;;;;;1.60;1.30;;;4.20;94.00;;;;;;5345644;26;20020;-78
2024/04/20 01:50:11;;;;;;;1.85;1.20;;;4.30;94.10;;;;;;5345636;26;20045;-78
2024/04/20 01:52:36;;;;;;;3.17;1.52;;;4.30;94.10;;;;;;5343833;26;20517;-78
2024/04/20 01:55:02;;;;;;;2.90;1.50;;;4.30;94.10;;;;;;5339912;26;20014;-78
2024/04/20 01:57:30;;;;;;;2.22;1.60;;;4.30;94.10;;;;;;5344065;26;20016;-77
2024/04/20 01:59:56;;;;;;;;;;;4.30;94.10;;;;;;5346145;26;20078;-78
2024/04/20 02:02:22;;;;;;;3.33;1.65;;;4.30;94.10;;;;;;5345235;26;19933;-78
2024/04/20 02:04:48;;;;;;;2.47;1.90;;;4.20;94.10;;;;;;5345456;26;20685;-78
2024/04/20 02:07:14;;;;;;;2.47;1.95;;;4.10;94.50;;;;;;5345447;26;20346;-78
2024/04/20 02:09:42;;;;;;;2.03;1.80;;;4.20;94.40;;;;;;5331493;26;20001;-78
2024/04/20 02:12:08;;;;;;;2.92;1.90;;;4.20;94.40;;;;;;5335349;26;20005;-78
2024/04/20 02:14:34;;;;;;;2.70;1.50;;;4.20;94.40;;;;;;5343946;26;20093;-78
2024/04/20 02:17:00;;;;;;;3.10;1.83;;;4.30;94.50;;;;;;5336968;26;20454;-78
2024/04/20 02:19:28;;;;;;;2.85;1.60;;;4.30;94.50;;;;;;5345217;26;20016;-78
2024/04/20 02:21:54;;;;;;;2.55;1.83;;;4.40;94.40;;;;;;5343496;26;20020;-78
2024/04/20 02:24:19;;;;;;;1.95;1.50;;;4.40;94.40;;;;;;5345118;26;20857;-77
2024/04/20 02:26:45;;;;;;;2.63;1.73;;;4.50;94.40;;;;;;5345079;26;20025;-78
2024/04/20 02:29:11;;;;;;;3.78;1.60;;;4.60;94.20;;;;;;5345075;26;20040;-77
2024/04/20 02:31:37;;;;;;;2.45;1.90;;;4.60;94.30;;;;;;5333550;26;20020;-78
2024/04/20 02:34:03;;;;;;;2.58;1.63;;;4.70;94.20;;;;;;5334205;26;20004;-78
2024/04/20 02:36:30;;;;;;;3.00;1.92;;;4.70;94.10;;;;;;5348940;26;20050;-77
2024/04/20 02:38:56;;;;;;;;;;;4.70;94.10;;;;;;5338330;26;20033;-78
2024/04/20 02:41:22;;;;;;;2.08;1.50;;;4.70;94.10;;;;;;5343729;26;20376;-78
2024/04/20 02:43:48;;;;;;;3.30;1.52;;;4.70;94.10;;;;;;5346597;26;20386;-78
2024/04/20 02:46:14;;;;;;;2.78;1.88;;;4.70;94.20;;;;;;5347850;26;20004;-77
2024/04/20 02:48:40;;;;;;;3.85;1.98;;;4.70;94.20;;;;;;5348446;26;20000;-78
2024/04/20 02:51:06;;;;;;;2.80;1.90;;;4.70;94.10;;;;;;5348255;26;20067;-77
2024/04/20 02:53:33;;;;;;;2.00;1.38;;;4.80;94.10;;;;;;5348310;26;20004;-78
2024/04/20 02:55:59;;;;;;;3.00;1.77;;;4.90;94.10;;;;;;5338973;26;20001;-78
2024/04/20 02:58:25;;;;;;;2.67;1.30;;;4.90;94.00;;;;;;5347622;26;20001;-78
2024/04/20 03:00:59;;;;;;;2.03;1.17;;;5.00;94.00;;;;;;5348017;26;20001;-78
2024/04/20 03:03:26;;;;;;;3.17;1.92;;;4.90;93.60;;;;;;5344473;26;20037;-78
2024/04/20 03:05:53;;;;;;;2.17;1.65;;;4.80;93.80;;;;;;5347587;26;20443;-78
2024/04/20 03:08:18;;;;;;;2.97;1.95;;;4.90;93.90;;;;;;5347072;26;20009;-78
2024/04/20 03:10:48;;;;;;;2.72;1.80;;;5.00;93.90;;;;;;5334545;26;20005;-76
2024/04/20 03:13:13;;;;;;;3.80;1.98;;;5.00;93.60;;;;;;5329039;26;20148;-77
2024/04/20 03:15:43;;;;;;;1.40;1.10;;;5.00;93.70;;;;;;5346989;26;20013;-76
2024/04/20 03:18:12;;;;;;;2.65;1.65;;;5.10;93.60;;;;;;5339961;26;20006;-75
2024/04/20 03:20:38;;;;;;;1.95;1.70;;;5.10;93.70;;;;;;5337203;26;20458;-75
2024/04/20 03:23:04;;;;;;;2.17;1.40;;;5.10;93.60;;;;;;5347353;26;20001;-75
2024/04/20 03:25:30;;;;;;;2.45;1.77;;;5.20;93.60;;;;;;5347107;26;20033;-76
2024/04/20 03:27:55;;;;;;;3.38;2.03;;;5.30;93.50;;;;;;5341603;26;20039;-77
2024/04/20 03:30:21;;;;;;;2.17;1.60;;;5.20;93.50;;;;;;5347207;26;20357;-75
2024/04/20 03:32:47;;;;;;;2.63;1.85;;;5.30;93.60;;;;;;5346732;26;20008;-76
2024/04/20 03:35:13;;;;;;;3.53;1.77;;;5.20;93.40;;;;;;5347090;26;20338;-76
2024/04/20 03:37:40;;;;;;;2.55;1.45;;;5.30;93.60;;;;;;5343962;26;20338;-76
2024/04/20 03:40:07;;;;;;;3.22;1.95;;;5.30;93.40;;;;;;5343674;26;20005;-76
2024/04/20 03:42:33;;;;;;;3.38;2.03;;;5.20;93.40;;;;;;5338937;26;20020;-76
2024/04/20 03:44:59;;;;;;;2.28;1.40;;;5.10;93.50;;;;;;5344462;26;20001;-76
2024/04/20 03:47:25;;;;;;;2.45;1.60;;;5.10;93.60;;;;;;5339240;26;20046;-76
2024/04/20 03:49:50;;;;;;;4.68;1.92;;;5.00;93.40;;;;;;5341642;26;20083;-77
2024/04/20 03:52:16;;;;;;;2.15;1.67;;;5.00;93.70;;;;;;5346863;26;20043;-76
2024/04/20 03:54:42;;;;;;;4.43;1.65;;;5.00;93.70;;;;;;5344794;26;20005;-77
2024/04/20 03:57:08;;;;;;;2.13;1.73;;;5.00;93.70;;;;;;5337045;26;20009;-75
2024/04/20 03:59:34;;;;;;;3.97;1.90;;;5.10;93.70;;;;;;5327833;26;19997;-76
2024/04/20 04:02:00;;;;;;;2.83;1.83;;;5.10;93.70;;;;;;5344912;26;20080;-76
2024/04/20 04:04:25;;;;;;;2.63;1.95;;;5.20;93.60;;;;;;5346832;26;20012;-76
2024/04/20 04:06:51;;;;;;;2.63;1.90;;;5.30;93.70;;;;;;5347033;26;19997;-76
2024/04/20 04:09:17;;;;;;;3.33;1.92;;;5.40;93.60;;;;;;5337007;26;20001;-76
2024/04/20 04:11:45;;;;;;;3.30;1.88;;;5.50;93.40;;;;;;5330664;26;19998;-76
2024/04/20 04:14:11;;;;;;;4.90;2.45;;;5.70;93.40;;;;;;5332438;26;20005;-76
2024/04/20 04:16:36;;;;;;;3.03;2.08;;;5.80;93.20;;;;;;5346686;26;20074;-75
2024/04/20 04:19:03;;;;;;;3.30;2.40;;;5.90;93.10;;;;;;5346383;26;20009;-76
2024/04/20 04:21:33;;;;;;;3.38;2.15;;;5.90;92.90;;;;;;5346368;26;20005;-76
2024/04/20 04:23:59;;;;;;;4.03;2.25;;;5.70;92.90;;;;;;5346679;26;20001;-75
2024/04/20 04:26:25;;;;;;;1.88;1.55;;;5.90;92.80;;;;;;5346262;26;20016;-78
2024/04/20 04:28:50;;;;;;;3.38;2.00;;;5.90;93.00;;;;;;5346206;26;20055;-77
2024/04/20 04:31:16;;;;;;;4.00;2.40;;;6.00;93.10;;;;;;5328945;26;19997;-76
2024/04/20 04:33:42;;;;;;;2.83;2.08;;;6.00;93.30;;;;;;5350290;26;20012;-78
2024/04/20 04:36:08;;;;;;;4.15;2.10;;;6.50;93.60;;;;;;5336849;26;20447;-77
2024/04/20 04:38:34;;;;;;;3.20;1.63;;;7.30;92.90;;;;;;5325611;26;20001;-77
2024/04/20 04:41:00;;;;;;;2.05;1.70;;;8.20;91.40;;;;;;5325496;26;20020;-76
2024/04/20 04:43:26;;;;;;;2.42;1.92;;;8.90;90.10;;;;;;5322124;26;20001;-75
2024/04/20 04:45:52;;;;;;;2.83;1.70;;;9.10;86.90;;;;;;5346095;26;20005;-77
2024/04/20 04:48:18;;;;;;;2.30;2.10;;;9.00;85.70;;;;;;5345506;26;20843;-77
2024/04/20 04:50:46;;;;;;;2.70;1.67;;;8.90;85.50;;;;;;5345947;26;20001;-77
2024/04/20 04:53:12;;;;;;;2.67;1.95;;;8.40;85.60;;;;;;5345822;26;20354;-77
2024/04/20 04:55:40;;;;;;;3.83;2.15;;;7.80;86.70;;;;;;5345607;26;20012;-78
2024/04/20 04:58:06;;;;;;;1.65;1.15;;;7.30;88.60;;;;;;5314235;26;20447;-77
2024/04/20 05:00:41;;;;;;;3.42;1.50;;;7.10;90.00;;;;;;5345986;26;20000;-78
2024/04/20 05:03:09;;;;;;;2.22;1.60;;;6.90;89.70;;;;;;5346208;26;20079;-79
2024/04/20 05:05:38;;;;;;;3.45;1.83;;;6.60;90.50;;;;;;5346362;26;20001;-78
2024/04/20 05:08:05;;;;;;;2.85;1.75;;;6.60;90.80;;;;;;5346419;26;20004;-75
2024/04/20 05:10:31;;;;;;;2.28;1.45;;;6.50;91.00;;;;;;5319647;26;20029;-76
2024/04/20 05:12:57;;;;;;;4.57;2.28;;;6.80;90.90;;;;;;5336464;26;20080;-77
2024/04/20 05:15:23;;;;;;;3.60;1.50;;;6.90;90.60;;;;;;5327332;26;20473;-77
2024/04/20 05:17:53;;;;;;;2.75;1.58;;;7.00;90.80;;;;;;5344300;26;20009;-77
2024/04/20 05:20:19;;;;;;;2.42;1.70;;;7.20;90.40;;;;;;5345598;26;20016;-77
2024/04/20 05:22:45;;;;;;;3.10;1.83;;;7.00;90.50;;;;;;5345293;26;20004;-76
2024/04/20 05:25:11;;;;;;;2.65;1.70;;;7.00;90.60;;;;;;5345459;26;20001;-76
2024/04/20 05:27:37;;;;;;;2.15;1.77;;;7.10;90.60;;;;;;5340364;26;20002;-76
2024/04/20 05:30:05;;;;;;;3.53;1.70;;;7.10;90.80;;;;;;5335511;26;20009;-76
2024/04/20 05:32:30;;;;;;;4.25;1.95;;;7.40;90.80;;;;;;5333177;26;20001;-75
2024/04/20 05:34:56;;;;;;;3.35;2.00;;;8.00;90.70;;;;;;5314300;26;20048;-76
2024/04/20 05:37:22;;;;;;;4.55;2.00;;;8.60;89.10;;;;;;5331823;26;20008;-77
2024/04/20 05:39:48;;;;;;;2.72;1.95;;;9.40;87.80;;;;;;5345346;26;19996;-77
2024/04/20 05:42:14;;;;;;;6.55;2.20;;;10.00;85.40;;;;;;5324901;26;20038;-77
2024/04/20 05:44:40;;;;;;;5.90;2.05;;;10.00;83.60;;;;;;5338377;26;20001;-77
2024/04/20 05:47:05;;;;;;;3.20;1.73;;;10.10;83.50;;;;;;5344892;26;20019;-76
2024/04/20 05:49:33;;;;;;;7.97;2.10;;;10.30;82.60;;;;;;5344850;26;20004;-76
2024/04/20 05:51:59;;;;;;;;;;;9.70;81.80;;;;;;5345654;26;20001;-76
2024/04/20 05:54:26;;;;;;;3.95;2.20;;;8.90;83.60;;;;;;5343091;26;19969;-76
2024/04/20 05:56:51;;;;;;;3.97;1.98;;;8.70;85.50;;;;;;5344903;26;20343;-76
2024/04/20 05:59:17;;;;;;;2.17;1.58;;;8.80;85.90;;;;;;5332419;26;20016;-77
2024/04/20 06:01:43;;;;;;;2.85;1.63;;;8.90;85.90;;;;;;5324387;26;20390;-76
2024/04/20 06:04:09;;;;;;;4.38;2.30;;;8.30;86.50;;;;;;5315616;26;20002;-78
2024/04/20 06:06:35;;;;;;;2.58;1.85;;;7.90;88.50;;;;;;5309995;26;20081;-77
2024/04/20 06:09:00;;;;;;;6.53;3.28;;;7.90;89.50;;;;;;5311220;26;20079;-76
2024/04/20 06:11:26;;;;;;;5.95;2.70;;;7.50;90.40;;;;;;5328264;26;20446;-76
2024/04/20 06:13:52;;;;;;;5.78;3.13;;;7.10;91.20;;;;;;5348032;26;20414;-75
2024/04/20 06:16:18;;;;;;;10.35;2.92;;;7.10;91.50;;;;;;5347887;26;20020;-75
2024/04/20 06:18:43;;;;;;;6.28;3.30;;;7.00;91.70;;;;;;5338024;26;20015;-76
2024/04/20 06:21:09;;;;;;;4.70;2.50;;;7.00;91.90;;;;;;5327305;26;20016;-76
2024/04/20 06:23:35;;;;;;;7.53;2.38;;;7.20;91.90;;;;;;5347610;26;20001;-77
2024/04/20 06:26:01;;;;;;;3.92;2.03;;;7.40;91.90;;;;;;5347576;26;20139;-77
2024/04/20 06:28:28;;;;;;;5.55;2.72;;;7.40;91.60;;;;;;5347428;26;19997;-77
2024/04/20 06:30:55;;;;;;;3.33;1.83;;;7.40;91.80;;;;;;5347492;26;20001;-78
2024/04/20 06:33:23;;;;;;;5.53;2.00;;;7.40;91.80;;;;;;5345288;26;20012;-77
2024/04/20 06:35:49;;;;;;;;;;;7.30;91.80;;;;;;5324616;26;20016;-76
2024/04/20 06:38:14;;;;;;;3.60;2.35;;;7.20;92.00;;;;;;5334284;26;19926;-75
2024/04/20 06:40:40;;;;;;;2.28;1.80;;;7.10;92.40;;;;;;5316360;26;20447;-77
2024/04/20 06:43:06;;;;;;;6.05;2.65;;;7.10;92.50;;;;;;5324645;26;20451;-76
2024/04/20 06:45:32;;;;;;;3.58;2.13;;;7.10;92.80;;;;;;5312871;26;20024;-77
2024/04/20 06:48:01;;;;;;;2.50;1.75;;;7.20;92.50;;;;;;5320469;26;20002;-78
2024/04/20 06:50:30;;;;;;;6.00;1.88;;;7.40;92.40;;;;;;5310687;26;20092;-77
2024/04/20 06:52:56;;;;;;;3.08;1.73;;;7.30;92.10;;;;;;5312389;26;20016;-75
2024/04/20 06:55:22;;;;;;;7.13;1.73;;;7.50;92.30;;;;;;5332580;26;20037;-76
2024/04/20 06:57:48;;;;;;;4.95;2.40;;;7.90;92.00;;;;;;5314363;26;20506;-77
2024/04/20 07:00:14;;;;;;;8.70;2.25;;;8.20;92.10;;;;;;5313253;26;20036;-76
2024/04/20 07:02:42;;;;;;;3.50;2.35;;;10.00;91.90;;;;;;5316291;26;20087;-76
2024/04/20 07:05:08;;;;;;;4.88;2.22;;;12.00;87.80;;;;;;5314270;26;20012;-76
2024/04/20 07:07:34;;;;;;;4.60;1.98;;;12.50;82.10;;;;;;5334522;26;20012;-75
2024/04/20 07:10:01;;;;;;;5.80;2.50;;;12.10;81.10;;;;;;5312448;26;20343;-78
2024/04/20 07:12:26;;;;;;;8.95;1.98;;;11.30;82.10;;;;;;5339513;26;20457;-79
2024/04/20 07:14:54;;;;;;;5.15;1.73;;;10.70;83.10;;;;;;5331090;26;20001;-77
2024/04/20 07:17:20;;;;;;;1.50;1.27;;;10.20;84.30;;;;;;5312190;26;20432;-78
2024/04/20 07:19:46;;;;;;;2.38;1.63;;;9.70;85.80;;;;;;5334457;26;20001;-79
2024/04/20 07:22:12;;;;;;;3.10;1.83;;;11.00;87.20;;;;;;5323781;26;20048;-78
2024/04/20 07:24:38;;;;;;;2.83;1.98;;;13.20;82.40;;;;;;5313224;26;19998;-78
2024/04/20 07:27:04;;;;;;;6.22;3.28;;;14.70;84.50;;;;;;5311626;26;20079;-78
2024/04/20 07:29:30;;;;;;;2.92;1.85;;;16.40;73.40;;;;;;5311838;26;20002;-77
2024/04/20 07:31:56;;;;;;;1.75;1.58;;;18.30;67.00;;;;;;5311672;26;20008;-76
2024/04/20 07:34:29;;;;;;;3.17;1.75;;;17.70;61.50;;;;;;5311756;26;20001;-79
2024/04/20 07:36:56;;;;;;;2.88;1.42;;;15.10;65.70;;;;;;5312679;26;20042;-76
2024/04/20 07:39:23;;;;;;;3.17;2.00;;;13.70;69.50;;;;;;5323439;26;20001;-78
2024/04/20 07:41:53;;;;;;;;;;;13.40;71.90;;;;;;5318527;26;20017;-78
2024/04/20 07:44:19;;;;;;;4.57;1.80;;;13.10;72.70;;;;;;5311290;26;20338;-76
2024/04/20 07:47:00;;;;;;;3.05;1.50;;;12.80;73.60;;;;;;5311735;26;20467;-76
2024/04/20 07:49:25;;;;;;;2.70;1.80;;;13.20;74.10;;;;;;5311685;26;20447;-78
2024/04/20 07:51:51;;;;;;;2.92;1.77;;;13.30;72.70;;;;;;5311760;26;20109;-78
2024/04/20 07:54:19;;;;;;;3.30;1.92;;;13.70;71.80;;;;;;5337541;26;20004;-78
2024/04/20 07:56:45;;;;;;;3.67;1.30;;;13.70;70.50;;;;;;5339646;26;20058;-78
2024/04/20 07:59:14;;;;;;;3.53;1.73;;;14.80;70.40;;;;;;5311733;26;20001;-77
2024/04/20 08:01:40;;;;;;;5.95;2.08;;;15.20;67.20;;;;;;5311430;26;20346;-77
2024/04/20 08:04:06;;;;;;;8.05;1.92;;;15.00;66.50;;;;;;5311524;26;20016;-76
2024/04/20 08:06:31;;;;;;;2.30;1.17;;;15.60;67.40;;;;;;5311385;26;20080;-77
2024/04/20 08:08:57;;;;;;;4.85;2.10;;;17.10;64.60;;;;;;5311213;26;20005;-78
2024/04/20 08:11:23;;;;;;;8.95;3.03;;;16.80;62.70;;;;;;5312946;26;20020;-77
2024/04/20 08:13:49;;;;;;;5.03;1.77;;;16.90;63.20;;;;;;5311537;26;20006;-77
2024/04/20 08:16:17;;;;;;;4.15;1.60;;;17.70;60.60;;;;;;5318067;26;20462;-79
2024/04/20 08:18:46;;;;;;;2.22;1.35;;;17.80;60.20;;;;;;5312681;26;20083;-79
2024/04/20 08:21:20;;;;;;;2.05;1.30;;;17.90;58.40;;;;;;5314087;26;20002;-80
2024/04/20 08:23:46;;;;;;;3.97;2.58;;;18.10;58.10;;;;;;5309923;26;20343;-78
2024/04/20 08:26:12;;;;;;;2.42;1.55;;;17.10;58.70;;;;;;5309653;26;20037;-80
2024/04/20 08:28:41;;;;;;;4.43;2.13;;;16.40;59.50;;;;;;5312802;26;20020;-79
2024/04/20 08:31:07;;;;;;;1.65;1.02;;;17.20;60.70;;;;;;5314658;26;20001;-79
2024/04/20 08:33:33;;;;;;;3.42;1.45;;;17.20;57.90;;;;;;5313977;26;20056;-79
2024/04/20 08:36:02;;;;;;;3.20;2.03;;;16.30;59.00;;;;;;5311323;26;20002;-80
2024/04/20 08:38:28;;;;;;;2.90;1.73;;;15.00;60.80;;;;;;5343498;26;20524;-82
2024/04/20 08:41:00;;;;;;;2.33;1.70;;;14.80;63.50;;;;;;5324227;26;20088;-80
2024/04/20 08:43:28;;;;;;;2.30;1.50;;;16.20;62.90;;;;;;5310620;26;20042;-81
2024/04/20 08:45:57;;;;;;;2.55;1.40;;;16.50;59.20;;;;;;5333500;26;20012;-80
2024/04/20 08:48:25;;;;;;;2.00;1.17;;;14.60;61.60;;;;;;5314590;26;20075;-82
2024/04/20 08:50:54;;;;;;;2.08;1.15;;;13.80;64.80;;;;;;5334453;26;20005;-83
2024/04/20 08:53:20;;;;;;;6.70;1.50;;;13.80;65.60;;;;;;5319322;26;20371;-80
2024/04/20 08:55:48;;;;;;;4.22;2.08;;;13.60;65.60;;;;;;5323546;26;20006;-81
2024/04/20 08:58:15;;;;;;;2.72;1.27;;;13.30;66.90;;;;;;5320289;26;20001;-79
2024/04/20 09:00:43;;;;;;;1.08;0.90;;;13.50;66.80;;;;;;5318640;26;20013;-79
2024/04/20 09:03:09;;;;;;;3.78;1.67;;;13.80;64.60;;;;;;5331281;26;20375;-82
2024/04/20 09:05:35;;;;;;;2.40;1.27;;;13.50;65.10;;;;;;5321267;26;20006;-83
2024/04/20 09:08:01;;;;;;;5.82;1.75;;;13.10;65.70;;;;;;5310429;26;20457;-82
2024/04/20 09:10:27;;;;;;;2.97;1.48;;;12.90;66.60;;;;;;5310989;26;20002;-81
2024/04/20 09:12:53;;;;;;;4.50;1.40;;;12.80;67.90;;;;;;5320180;26;20025;-84
2024/04/20 09:15:20;;;;;;;2.67;1.80;;;12.70;67.70;;;;;;5326372;26;20013;-81
2024/04/20 09:17:46;;;;;;;4.05;1.73;;;12.70;68.70;;;;;;5310994;26;20418;-82
2024/04/20 09:20:13;;;;;;;7.40;1.58;;;13.40;66.70;;;;;;5311116;26;20002;-80
2024/04/20 09:22:39;;;;;;;3.00;2.00;;;13.70;66.30;;;;;;5319426;26;20018;-83
2024/04/20 09:25:06;;;;;;;6.80;2.07;;;14.60;65.90;;;;;;5311009;26;20447;-82
2024/04/20 09:27:32;;;;;;;2.13;1.45;;;16.30;62.80;;;;;;5310285;26;20135;-85
2024/04/20 09:30:05;;;;;;;4.30;1.90;;;17.00;58.70;;;;;;5311186;26;20001;-84
2024/04/20 09:32:34;;;;;;;5.00;2.80;;;16.40;58.20;;;;;;5311051;26;20013;-83
2024/04/20 09:35:03;;;;;;;3.75;2.15;;;15.90;59.60;;;;;;5311189;26;20001;-85
2024/04/20 09:37:29;;;;;;;3.90;1.83;;;15.90;60.10;;;;;;5310973;26;20002;-81
2024/04/20 09:39:55;;;;;;;2.45;1.70;;;16.10;58.80;;;;;;5310446;26;20013;-82
2024/04/20 09:42:22;;;;;;;4.30;1.55;;;15.70;59.00;;;;;;5310765;26;20010;-85
2024/04/20 09:44:50;;;;;;;5.00;1.83;;;15.20;59.80;;;;;;5310515;26;20009;-83
2024/04/20 09:47:19;;;;;;;5.70;2.05;;;14.80;61.00;;;;;;5309279;26;20013;-82
2024/04/20 09:49:50;;;;;;;5.28;2.97;;;15.30;62.00;;;;;;5309820;26;20013;-81
2024/04/20 09:52:30;;;;;;;5.20;2.13;;;15.40;60.50;;;;;;5317640;26;20005;-83
2024/04/20 09:55:04;;;;;;;3.17;1.80;;;15.10;60.30;;;;;;5319383;26;20061;-80
2024/04/20 09:57:34;;;;;;;3.53;1.63;;;14.30;60.90;;;;;;5308829;26;20026;-84
2024/04/20 10:00:01;;;;;;;3.22;1.70;;;13.90;62.70;;;;;;5310432;26;19998;-82
2024/04/20 10:02:28;;;;;;;4.35;2.22;;;14.70;63.20;;;;;;5310278;26;20084;-82
2024/04/20 10:04:58;;;;;;;2.72;1.80;;;15.90;60.20;;;;;;5316742;26;20005;-82
2024/04/20 10:07:29;;;;;;;2.33;1.38;;;16.40;58.30;;;;;;5332353;26;20416;-80
2024/04/20 10:10:00;;;;;;;3.47;1.58;;;16.70;56.60;;;;;;5311917;26;20002;-82
2024/04/20 10:12:26;;;;;;;7.20;2.60;;;17.40;54.80;;;;;;5332171;26;20013;-81
2024/04/20 10:14:53;;;;;;;3.67;1.63;;;18.00;55.40;;;;;;5310734;26;20002;-80
2024/04/20 10:17:19;;;;;;;4.05;1.70;;;19.30;52.70;;;;;;5308277;26;20006;-83
2024/04/20 10:19:45;;;;;;;2.40;1.38;;;20.20;49.00;;;;;;5308676;26;20005;-81
2024/04/20 10:22:11;;;;;;;4.90;1.67;;;19.10;49.10;;;;;;5309940;26;20017;-82
2024/04/20 10:24:37;;;;;;;3.20;1.42;;;18.40;49.40;;;;;;5309797;26;20034;-80
2024/04/20 10:27:03;;;;;;;12.02;1.95;;;17.10;50.10;;;;;;5310787;26;20001;-80
2024/04/20 10:29:35;;;;;;;3.58;1.33;;;16.40;51.50;;;;;;5310443;26;20354;-81
2024/04/20 10:32:02;;;;;;;5.05;1.60;;;15.90;52.20;;;;;;5311352;26;20006;-81
2024/04/20 10:34:28;;;;;;;8.30;1.60;;;15.50;53.30;;;;;;5309123;26;20101;-80
2024/04/20 10:36:59;;;;;;;3.63;1.33;;;15.00;53.40;;;;;;5309300;26;20481;-80
2024/04/20 10:39:33;;;;;;;2.55;1.92;;;14.60;54.90;;;;;;5307321;26;20004;-78
2024/04/20 10:42:08;;;;;;;2.60;1.75;;;13.90;56.90;;;;;;5308949;26;20463;-77
2024/04/20 10:44:35;;;;;;;3.55;1.83;;;13.60;58.10;;;;;;5311429;26;20500;-79
2024/04/20 10:47:01;;;;;;;4.97;1.93;;;13.60;58.00;;;;;;5313846;26;20051;-79
2024/04/20 10:49:27;;;;;;;4.80;2.10;;;13.50;58.00;;;;;;5331295;26;20415;-79
2024/04/20 10:51:56;;;;;;;3.63;1.77;;;13.50;57.90;;;;;;5308494;26;20015;-79
2024/04/20 10:54:23;;;;;;;9.75;4.30;;;13.60;58.40;;;;;;5313561;26;20016;-78
2024/04/20 10:56:52;;;;;;;7.22;2.50;;;13.40;58.70;;;;;;5312667;26;20012;-83
2024/04/20 10:59:19;;;;;;;4.43;1.92;;;13.20;59.50;;;;;;5323834;26;20002;-81
2024/04/20 11:01:45;;;;;;;4.75;2.33;;;13.00;57.50;;;;;;5318698;26;20009;-82
2024/04/20 11:04:11;;;;;;;6.65;2.15;;;12.80;58.40;;;;;;5310404;26;20459;-82
2024/04/20 11:06:37;;;;;;;5.72;2.85;;;13.00;59.00;;;;;;5311734;26;20466;-81
2024/04/20 11:09:09;;;;;;;3.83;1.95;;;13.10;59.60;;;;;;5312387;26;20313;-82
2024/04/20 11:11:35;;;;;;;2.60;1.80;;;13.40;59.50;;;;;;5330624;26;20005;-80
2024/04/20 11:14:01;;;;;;;1.98;1.75;;;13.60;58.30;;;;;;5335951;26;20054;-81
2024/04/20 11:16:28;;;;;;;3.47;1.58;;;13.60;56.70;;;;;;5332901;26;20383;-80
2024/04/20 11:18:54;;;;;;;2.60;1.83;;;13.10;57.50;;;;;;5345608;26;20019;-83
2024/04/20 11:21:20;;;;;;;3.80;1.70;;;12.90;58.50;;;;;;5333581;26;20013;-83
2024/04/20 11:23:46;;;;;;;3.83;1.83;;;12.80;59.30;;;;;;5312349;26;20019;-82
2024/04/20 11:26:12;;;;;;;7.38;2.00;;;12.90;60.10;;;;;;5318091;26;20116;-84
2024/04/20 11:28:40;;;;;;;4.68;1.85;;;13.10;60.10;;;;;;5314956;26;20599;-84
2024/04/20 11:31:09;;;;;;;7.43;2.08;;;13.20;60.00;;;;;;5316846;26;20006;-89
2024/04/20 11:33:35;;;;;;;6.07;2.38;;;13.30;59.60;;;;;;5330366;26;20016;-84
2024/04/20 11:36:04;;;;;;;11.70;2.67;;;13.20;59.80;;;;;;5315961;26;20017;-89
2024/04/20 11:38:30;;;;;;;7.70;2.53;;;13.10;60.90;;;;;;5314846;26;20002;-83
2024/04/20 11:40:56;;;;;;;6.35;2.97;;;13.10;61.30;;;;;;5316237;26;20306;-84
2024/04/20 11:43:24;;;;;;;3.20;1.73;;;13.00;60.20;;;;;;5313814;26;20016;-85
2024/04/20 11:45:52;;;;;;;2.72;1.70;;;12.90;59.60;;;;;;5312826;26;20001;-83
2024/04/20 11:48:26;;;;;;;3.10;2.00;;;12.80;59.70;;;;;;5312236;26;20001;-84
2024/04/20 11:51:01;;;;;;;4.47;1.98;;;13.00;59.40;;;;;;5338898;26;20001;-86
2024/04/20 11:56:16;;;;;;;5.70;3.15;;;12.80;57.40;;;;;;5320617;26;20047;-86
2024/04/20 11:58:50;;;;;;;8.27;2.70;;;12.40;58.80;;;;;;5350337;26;20013;-90
2024/04/20 12:01:17;;;;;;;6.97;2.20;;;12.40;59.20;;;;;;5326055;26;20013;-86
2024/04/20 12:03:49;;;;;;;5.32;2.53;;;12.50;57.60;;;;;;5315781;26;20005;-85
2024/04/20 12:06:16;;;;;;;6.97;2.40;;;12.50;57.40;;;;;;5313004;26;20083;-85
2024/04/20 12:08:42;;;;;;;7.65;4.15;;;12.50;57.80;;;;;;5318432;26;20016;-87
2024/04/20 12:11:08;;;;;;;12.70;5.28;;;12.70;57.10;;;;;;5317553;26;20462;-86
2024/04/20 12:13:35;;;;;;;10.45;3.58;;;12.80;56.70;;;;;;5319780;26;20001;-91
2024/04/20 12:16:01;;;;;;;5.43;2.83;;;12.90;56.50;;;;;;5345126;26;20016;-90
2024/04/20 12:18:27;;;;;;;4.20;2.25;;;12.90;55.50;;;;;;5315046;26;20514;-90
2024/04/20 12:20:52;;;;;;;4.63;2.55;;;12.70;55.10;;;;;;5311988;26;20006;-88
2024/04/20 12:23:18;;;;;;;4.78;2.28;;;12.50;55.80;;;;;;5312917;26;20001;-85
2024/04/20 12:25:51;;;;;;;3.67;1.95;;;12.50;56.00;;;;;;5312730;26;20017;-79
2024/04/20 12:28:17;;;;;;;4.15;1.92;;;12.50;56.30;;;;;;5325737;26;20141;-86
2024/04/20 12:30:43;;;;;;;3.37;1.47;;;12.50;56.30;;;;;;5320328;26;20002;-88
2024/04/20 12:33:10;;;;;;;5.97;1.95;;;12.40;56.20;;;;;;5331023;26;20002;-88
2024/04/20 12:35:36;;;;;;;2.33;1.58;;;12.40;56.80;;;;;;5341021;26;20072;-88
2024/04/20 12:38:03;;;;;;;4.30;2.10;;;12.60;56.70;;;;;;5322884;26;20365;-88
2024/04/20 12:40:28;;;;;;;3.47;2.70;;;12.70;56.90;;;;;;5344029;26;20005;-88
2024/04/20 12:42:54;;;;;;;10.07;3.70;;;12.80;56.90;;;;;;5316410;26;20355;-87
2024/04/20 12:45:22;;;;;;;2.72;1.95;;;12.90;55.40;;;;;;5332222;26;20012;-86
2024/04/20 12:47:49;;;;;;;2.97;1.80;;;12.90;55.10;;;;;;5337207;26;20012;-90
2024/04/20 12:50:18;;;;;;;3.20;1.77;;;12.80;54.50;;;;;;5336116;26;20004;-88
2024/04/20 12:52:44;;;;;;;4.03;1.90;;;12.70;54.80;;;;;;5356233;26;20016;-88